This is the latest recevied weather packets stored in our database for station/object SQ4LOL-13. If no packets are shown the sender has not sent any weather packets the latest 10 day(s).
| Time | Temp. | Humidity | Pressure | Rain* | Wind** | Luminosity | Snow |
|---|---|---|---|---|---|---|---|
| 1777623485 | 12.22° C | 60% | 1007.9 hPa | 0 mm | - | - | - |
| 1777621679 | 11.11° C | 59% | 1007.8 hPa | 0 mm | - | - | - |
| 1777610241 | 6.67° C | 69% | 1007.5 hPa | 0 mm | - | - | - |
| 1777609038 | 6.67° C | 69% | 1007.5 hPa | 0 mm | - | - | - |
| 1777604823 | 6.67° C | 66% | 1007.5 hPa | 0 mm | - | - | - |
| 1777604222 | 7.22° C | 65% | 1007.7 hPa | 0 mm | - | - | - |
| 1777603017 | 7.22° C | 65% | 1007.8 hPa | 0 mm | - | - | - |
| 1777601813 | 7.22° C | 66% | 1007.9 hPa | 0 mm | - | - | - |
| 1777600609 | 7.22° C | 67% | 1007.9 hPa | 0 mm | - | - | - |
| 1777595212 | 7.22° C | 65% | 1008.1 hPa | 0 mm | - | - | - |
| 1777594590 | 7.22° C | 66% | 1008 hPa | 0 mm | - | - | - |
| 1777590978 | 6.67° C | 67% | 1008.3 hPa | 0 mm | - | - | - |
| 1777589171 | 6.67° C | 66% | 1008.5 hPa | 0 mm | - | - | - |
| 1777583152 | 7.22° C | 60% | 1008.5 hPa | 0 mm | - | - | - |
| 1777581345 | 7.78° C | 58% | 1008.6 hPa | 0 mm | - | - | - |
| 1777578937 | 8.33° C | 55% | 1008.6 hPa | 0 mm | - | - | - |
| 1777577132 | 8.89° C | 52% | 1008.8 hPa | 0 mm | - | - | - |
| 1777574122 | 10° C | 49% | 1008.8 hPa | 0 mm | - | - | - |
| 1777572917 | 10.56° C | 48% | 1008.8 hPa | 0 mm | - | - | - |
| 1777571111 | 10.56° C | 46% | 1008.6 hPa | 0 mm | - | - | - |
| 1777570510 | 10.56° C | 46% | 1008.5 hPa | 0 mm | - | - | - |
| 1777569306 | 11.11° C | 44% | 1008.5 hPa | 0 mm | - | - | - |
| 1777563888 | 12.22° C | 42% | 1008.7 hPa | 0 mm | - | - | - |
| 1777562683 | 12.22° C | 41% | 1008.7 hPa | 0 mm | - | - | - |
| 1777562082 | 12.78° C | 40% | 1008.7 hPa | 0 mm | - | - | - |
* Rain latest hour (hover to see other rain measurements)
** Current wind speed in m/s (hover to see current wind gust speed)